sensor_id;sensor_type;location;lat;lon;timestamp;pressure;altitude;pressure_sealevel;temperature;humidity
33781;BME280;20097;50.832;19.100;2023-03-15T00:02:20;97068.88;;;3.01;100.00
33781;BME280;20097;50.832;19.100;2023-03-15T00:07:24;97093.50;;;2.95;100.00
33781;BME280;20097;50.832;19.100;2023-03-15T00:12:28;97099.56;;;2.78;100.00
33781;BME280;20097;50.832;19.100;2023-03-15T00:17:33;97125.41;;;2.68;100.00
33781;BME280;20097;50.832;19.100;2023-03-15T00:22:37;97155.06;;;2.72;100.00
33781;BME280;20097;50.832;19.100;2023-03-15T00:27:41;97160.03;;;2.66;100.00
33781;BME280;20097;50.832;19.100;2023-03-15T00:32:47;97169.00;;;2.62;100.00
33781;BME280;20097;50.832;19.100;2023-03-15T00:37:53;97173.78;;;2.74;100.00
33781;BME280;20097;50.832;19.100;2023-03-15T00:42:57;97194.06;;;2.77;100.00
33781;BME280;20097;50.832;19.100;2023-03-15T00:48:03;97197.09;;;2.73;100.00
33781;BME280;20097;50.832;19.100;2023-03-15T00:53:08;97211.69;;;2.64;100.00
33781;BME280;20097;50.832;19.100;2023-03-15T00:58:13;97227.00;;;2.66;100.00
33781;BME280;20097;50.832;19.100;2023-03-15T01:03:18;97249.88;;;2.69;100.00
33781;BME280;20097;50.832;19.100;2023-03-15T01:08:22;97252.16;;;2.72;100.00
33781;BME280;20097;50.832;19.100;2023-03-15T01:13:27;97260.84;;;2.71;100.00
33781;BME280;20097;50.832;19.100;2023-03-15T01:18:33;97274.91;;;2.59;100.00
33781;BME280;20097;50.832;19.100;2023-03-15T01:23:37;97287.00;;;2.58;100.00
33781;BME280;20097;50.832;19.100;2023-03-15T01:28:41;97295.66;;;2.57;100.00
33781;BME280;20097;50.832;19.100;2023-03-15T01:33:47;97292.38;;;2.65;100.00
33781;BME280;20097;50.832;19.100;2023-03-15T01:38:51;97314.59;;;2.66;100.00
33781;BME280;20097;50.832;19.100;2023-03-15T01:44:01;97327.97;;;2.69;100.00
33781;BME280;20097;50.832;19.100;2023-03-15T01:49:07;97346.38;;;2.74;100.00
33781;BME280;20097;50.832;19.100;2023-03-15T01:54:18;97363.81;;;2.80;100.00
33781;BME280;20097;50.832;19.100;2023-03-15T01:59:26;97373.31;;;2.80;100.00
33781;BME280;20097;50.832;19.100;2023-03-15T02:04:34;97376.91;;;2.87;100.00
33781;BME280;20097;50.832;19.100;2023-03-15T02:09:41;97394.44;;;2.83;100.00
33781;BME280;20097;50.832;19.100;2023-03-15T02:14:48;97395.56;;;2.81;100.00
33781;BME280;20097;50.832;19.100;2023-03-15T02:19:59;97396.13;;;2.75;100.00
33781;BME280;20097;50.832;19.100;2023-03-15T02:25:11;97410.19;;;2.80;100.00
33781;BME280;20097;50.832;19.100;2023-03-15T02:30:20;97409.53;;;2.78;100.00
33781;BME280;20097;50.832;19.100;2023-03-15T02:35:25;97408.22;;;2.74;100.00
33781;BME280;20097;50.832;19.100;2023-03-15T02:40:30;97395.63;;;2.71;100.00
33781;BME280;20097;50.832;19.100;2023-03-15T02:45:36;97411.19;;;2.70;100.00
33781;BME280;20097;50.832;19.100;2023-03-15T02:50:41;97419.59;;;2.72;100.00
33781;BME280;20097;50.832;19.100;2023-03-15T02:55:45;97416.34;;;2.70;100.00
33781;BME280;20097;50.832;19.100;2023-03-15T03:00:52;97423.59;;;2.66;100.00
33781;BME280;20097;50.832;19.100;2023-03-15T03:05:57;97429.31;;;2.60;100.00
33781;BME280;20097;50.832;19.100;2023-03-15T03:11:01;97440.50;;;2.51;100.00
33781;BME280;20097;50.832;19.100;2023-03-15T03:16:07;97442.91;;;2.53;100.00
33781;BME280;20097;50.832;19.100;2023-03-15T03:21:12;97458.13;;;2.46;100.00
33781;BME280;20097;50.832;19.100;2023-03-15T03:26:18;97465.28;;;2.52;100.00
33781;BME280;20097;50.832;19.100;2023-03-15T03:31:26;97479.56;;;2.47;100.00
33781;BME280;20097;50.832;19.100;2023-03-15T03:36:31;97489.56;;;2.50;100.00
33781;BME280;20097;50.832;19.100;2023-03-15T03:41:36;97502.28;;;2.51;100.00
33781;BME280;20097;50.832;19.100;2023-03-15T03:46:43;97502.06;;;2.45;100.00
33781;BME280;20097;50.832;19.100;2023-03-15T03:51:48;97512.53;;;2.34;100.00
33781;BME280;20097;50.832;19.100;2023-03-15T03:56:53;97517.13;;;2.40;100.00
33781;BME280;20097;50.832;19.100;2023-03-15T04:02:02;97522.75;;;2.26;100.00
33781;BME280;20097;50.832;19.100;2023-03-15T04:07:06;97522.50;;;2.19;100.00
33781;BME280;20097;50.832;19.100;2023-03-15T04:12:13;97512.59;;;2.15;100.00
33781;BME280;20097;50.832;19.100;2023-03-15T04:17:21;97512.72;;;2.13;100.00
33781;BME280;20097;50.832;19.100;2023-03-15T04:22:26;97520.31;;;2.15;100.00
33781;BME280;20097;50.832;19.100;2023-03-15T04:27:55;97534.59;;;2.00;100.00
33781;BME280;20097;50.832;19.100;2023-03-15T04:33:17;97547.88;;;2.05;100.00
33781;BME280;20097;50.832;19.100;2023-03-15T04:38:53;97552.34;;;2.03;100.00
33781;BME280;20097;50.832;19.100;2023-03-15T04:44:23;97549.03;;;2.10;100.00
33781;BME280;20097;50.832;19.100;2023-03-15T04:49:29;97548.50;;;2.07;100.00
33781;BME280;20097;50.832;19.100;2023-03-15T04:54:43;97548.91;;;2.12;100.00
33781;BME280;20097;50.832;19.100;2023-03-15T04:59:47;97555.44;;;2.06;100.00
33781;BME280;20097;50.832;19.100;2023-03-15T05:04:55;97559.09;;;2.04;100.00
33781;BME280;20097;50.832;19.100;2023-03-15T05:10:23;97575.06;;;2.07;100.00
33781;BME280;20097;50.832;19.100;2023-03-15T05:16:03;97576.69;;;2.08;100.00
33781;BME280;20097;50.832;19.100;2023-03-15T05:21:18;97593.63;;;2.11;100.00
33781;BME280;20097;50.832;19.100;2023-03-15T05:26:55;97606.09;;;2.06;100.00
33781;BME280;20097;50.832;19.100;2023-03-15T05:32:19;97600.53;;;2.10;100.00
33781;BME280;20097;50.832;19.100;2023-03-15T05:37:49;97599.34;;;2.05;100.00
33781;BME280;20097;50.832;19.100;2023-03-15T05:43:25;97606.22;;;2.14;100.00
33781;BME280;20097;50.832;19.100;2023-03-15T05:48:47;97597.28;;;1.99;100.00
33781;BME280;20097;50.832;19.100;2023-03-15T05:54:05;97613.81;;;1.96;100.00
33781;BME280;20097;50.832;19.100;2023-03-15T05:59:38;97637.13;;;1.95;100.00
33781;BME280;20097;50.832;19.100;2023-03-15T06:05:03;97648.63;;;2.00;100.00
33781;BME280;20097;50.832;19.100;2023-03-15T06:10:10;97658.66;;;2.03;100.00
33781;BME280;20097;50.832;19.100;2023-03-15T06:15:15;97656.22;;;2.11;100.00
33781;BME280;20097;50.832;19.100;2023-03-15T06:20:20;97657.69;;;2.14;100.00
33781;BME280;20097;50.832;19.100;2023-03-15T06:25:26;97661.88;;;2.15;100.00
33781;BME280;20097;50.832;19.100;2023-03-15T06:30:30;97663.53;;;2.16;100.00
33781;BME280;20097;50.832;19.100;2023-03-15T06:35:35;97664.34;;;2.26;100.00
33781;BME280;20097;50.832;19.100;2023-03-15T06:40:42;97681.81;;;2.22;100.00
33781;BME280;20097;50.832;19.100;2023-03-15T06:45:46;97705.94;;;2.31;100.00
33781;BME280;20097;50.832;19.100;2023-03-15T06:50:51;97728.81;;;2.34;100.00
33781;BME280;20097;50.832;19.100;2023-03-15T06:55:56;97728.69;;;2.45;100.00
33781;BME280;20097;50.832;19.100;2023-03-15T07:01:00;97753.84;;;2.70;100.00
33781;BME280;20097;50.832;19.100;2023-03-15T07:06:05;97763.22;;;2.71;100.00
33781;BME280;20097;50.832;19.100;2023-03-15T07:11:11;97772.03;;;2.59;100.00
33781;BME280;20097;50.832;19.100;2023-03-15T07:16:15;97763.34;;;2.79;100.00
33781;BME280;20097;50.832;19.100;2023-03-15T07:21:20;97775.00;;;2.73;100.00
33781;BME280;20097;50.832;19.100;2023-03-15T07:26:25;97771.50;;;2.74;100.00
33781;BME280;20097;50.832;19.100;2023-03-15T07:31:29;97792.09;;;2.84;100.00
33781;BME280;20097;50.832;19.100;2023-03-15T07:36:34;97805.91;;;2.83;100.00
33781;BME280;20097;50.832;19.100;2023-03-15T07:41:39;97819.47;;;2.85;100.00
33781;BME280;20097;50.832;19.100;2023-03-15T07:46:56;97826.94;;;2.88;100.00
33781;BME280;20097;50.832;19.100;2023-03-15T07:52:00;97835.75;;;2.95;100.00
33781;BME280;20097;50.832;19.100;2023-03-15T07:57:07;97839.56;;;2.91;100.00
33781;BME280;20097;50.832;19.100;2023-03-15T08:02:12;97854.44;;;3.26;100.00
33781;BME280;20097;50.832;19.100;2023-03-15T08:07:17;97845.91;;;3.25;100.00
33781;BME280;20097;50.832;19.100;2023-03-15T08:12:24;97861.19;;;3.46;100.00
33781;BME280;20097;50.832;19.100;2023-03-15T08:17:28;97856.84;;;3.46;100.00
33781;BME280;20097;50.832;19.100;2023-03-15T08:22:32;97861.03;;;3.47;100.00
33781;BME280;20097;50.832;19.100;2023-03-15T08:27:40;97854.16;;;3.38;99.78
33781;BME280;20097;50.832;19.100;2023-03-15T08:32:45;97871.88;;;3.60;100.00
33781;BME280;20097;50.832;19.100;2023-03-15T08:37:50;97883.00;;;3.61;94.37
33781;BME280;20097;50.832;19.100;2023-03-15T08:42:56;97886.44;;;3.88;94.63
33781;BME280;20097;50.832;19.100;2023-03-15T08:48:00;97877.97;;;3.96;94.15
33781;BME280;20097;50.832;19.100;2023-03-15T08:53:04;97882.47;;;3.94;90.77
33781;BME280;20097;50.832;19.100;2023-03-15T08:58:11;97886.72;;;4.40;90.36
33781;BME280;20097;50.832;19.100;2023-03-15T09:03:16;97900.53;;;4.48;87.60
33781;BME280;20097;50.832;19.100;2023-03-15T09:08:20;97891.56;;;4.70;82.84
33781;BME280;20097;50.832;19.100;2023-03-15T09:13:28;97904.97;;;4.56;83.96
33781;BME280;20097;50.832;19.100;2023-03-15T09:18:32;97914.25;;;4.76;81.97
33781;BME280;20097;50.832;19.100;2023-03-15T09:23:37;97915.59;;;4.97;82.96
33781;BME280;20097;50.832;19.100;2023-03-15T09:28:46;97923.09;;;5.26;80.51
33781;BME280;20097;50.832;19.100;2023-03-15T09:33:49;97913.41;;;5.28;76.07
33781;BME280;20097;50.832;19.100;2023-03-15T09:38:53;97920.44;;;5.61;74.58
33781;BME280;20097;50.832;19.100;2023-03-15T09:44:04;97921.72;;;5.14;76.72
33781;BME280;20097;50.832;19.100;2023-03-15T09:49:13;97927.53;;;5.77;75.64
33781;BME280;20097;50.832;19.100;2023-03-15T09:54:22;97926.78;;;5.84;72.85
33781;BME280;20097;50.832;19.100;2023-03-15T09:59:31;97917.28;;;5.67;72.86
33781;BME280;20097;50.832;19.100;2023-03-15T10:04:35;97910.66;;;5.47;74.18
33781;BME280;20097;50.832;19.100;2023-03-15T10:09:43;97915.78;;;5.39;72.85
33781;BME280;20097;50.832;19.100;2023-03-15T10:15:15;97914.00;;;5.65;73.83
33781;BME280;20097;50.832;19.100;2023-03-15T10:20:24;97918.78;;;5.52;71.79
33781;BME280;20097;50.832;19.100;2023-03-15T10:25:31;97926.28;;;5.63;72.63
33781;BME280;20097;50.832;19.100;2023-03-15T10:30:38;97927.94;;;5.64;71.26
33781;BME280;20097;50.832;19.100;2023-03-15T10:35:43;97936.78;;;5.61;68.41
33781;BME280;20097;50.832;19.100;2023-03-15T10:40:48;97928.56;;;5.66;68.55
33781;BME280;20097;50.832;19.100;2023-03-15T10:46:01;97932.38;;;5.54;69.30
33781;BME280;20097;50.832;19.100;2023-03-15T10:51:12;97938.19;;;5.48;71.05
33781;BME280;20097;50.832;19.100;2023-03-15T10:56:21;97948.00;;;5.27;70.72
33781;BME280;20097;50.832;19.100;2023-03-15T11:01:30;97951.03;;;5.22;72.59
33781;BME280;20097;50.832;19.100;2023-03-15T11:06:40;97955.56;;;5.38;70.65
33781;BME280;20097;50.832;19.100;2023-03-15T11:11:51;97960.94;;;5.27;68.83
33781;BME280;20097;50.832;19.100;2023-03-15T11:16:57;97967.97;;;5.34;70.21
33781;BME280;20097;50.832;19.100;2023-03-15T11:22:02;97961.31;;;5.32;67.83
33781;BME280;20097;50.832;19.100;2023-03-15T11:27:10;97969.13;;;5.40;69.70
33781;BME280;20097;50.832;19.100;2023-03-15T11:32:18;97971.72;;;5.40;70.08
33781;BME280;20097;50.832;19.100;2023-03-15T11:37:25;97975.81;;;5.42;70.04
33781;BME280;20097;50.832;19.100;2023-03-15T11:42:33;97974.78;;;5.18;69.35
33781;BME280;20097;50.832;19.100;2023-03-15T11:47:43;97978.09;;;5.45;69.69
33781;BME280;20097;50.832;19.100;2023-03-15T11:52:50;97974.69;;;5.10;69.81
33781;BME280;20097;50.832;19.100;2023-03-15T11:57:55;97969.53;;;5.10;70.64
33781;BME280;20097;50.832;19.100;2023-03-15T12:03:23;97972.56;;;5.23;69.94
33781;BME280;20097;50.832;19.100;2023-03-15T12:08:41;97967.63;;;5.12;68.46
33781;BME280;20097;50.832;19.100;2023-03-15T12:13:53;97964.06;;;5.13;69.12
33781;BME280;20097;50.832;19.100;2023-03-15T12:19:10;97973.81;;;5.36;68.26
33781;BME280;20097;50.832;19.100;2023-03-15T12:24:21;97980.09;;;5.34;68.83
33781;BME280;20097;50.832;19.100;2023-03-15T12:29:27;97979.78;;;5.37;68.95
33781;BME280;20097;50.832;19.100;2023-03-15T12:34:43;97992.44;;;5.22;67.60
33781;BME280;20097;50.832;19.100;2023-03-15T12:39:49;97996.94;;;5.20;67.51
33781;BME280;20097;50.832;19.100;2023-03-15T12:44:53;97989.84;;;5.40;67.44
33781;BME280;20097;50.832;19.100;2023-03-15T12:49:59;98007.88;;;5.32;68.66
33781;BME280;20097;50.832;19.100;2023-03-15T12:55:23;97999.31;;;5.49;69.45
33781;BME280;20097;50.832;19.100;2023-03-15T13:00:30;98009.53;;;5.33;68.57
33781;BME280;20097;50.832;19.100;2023-03-15T13:05:43;98009.06;;;5.37;69.56
33781;BME280;20097;50.832;19.100;2023-03-15T13:11:10;98020.09;;;5.57;68.14
33781;BME280;20097;50.832;19.100;2023-03-15T13:16:23;98039.75;;;5.68;67.48
33781;BME280;20097;50.832;19.100;2023-03-15T13:21:33;98040.78;;;5.75;64.26
33781;BME280;20097;50.832;19.100;2023-03-15T13:26:44;98044.94;;;5.50;64.59
33781;BME280;20097;50.832;19.100;2023-03-15T13:32:01;98049.00;;;5.70;64.38
33781;BME280;20097;50.832;19.100;2023-03-15T13:37:23;98054.56;;;5.75;63.58
33781;BME280;20097;50.832;19.100;2023-03-15T13:42:28;98068.75;;;5.71;63.26
33781;BME280;20097;50.832;19.100;2023-03-15T13:47:33;98058.09;;;5.74;63.24
33781;BME280;20097;50.832;19.100;2023-03-15T13:52:39;98064.69;;;6.04;63.72
33781;BME280;20097;50.832;19.100;2023-03-15T13:57:43;98062.91;;;6.04;62.20
33781;BME280;20097;50.832;19.100;2023-03-15T14:02:50;98060.94;;;5.98;63.21
33781;BME280;20097;50.832;19.100;2023-03-15T14:07:58;98078.94;;;5.82;62.30
33781;BME280;20097;50.832;19.100;2023-03-15T14:13:21;98073.44;;;5.85;63.09
33781;BME280;20097;50.832;19.100;2023-03-15T14:18:29;98065.28;;;5.63;63.50
33781;BME280;20097;50.832;19.100;2023-03-15T14:23:38;98066.63;;;5.84;64.20
33781;BME280;20097;50.832;19.100;2023-03-15T14:28:47;98067.44;;;5.85;64.05
33781;BME280;20097;50.832;19.100;2023-03-15T14:33:52;98067.81;;;5.90;64.95
33781;BME280;20097;50.832;19.100;2023-03-15T14:38:58;98073.22;;;5.96;64.62
33781;BME280;20097;50.832;19.100;2023-03-15T14:44:02;98069.78;;;5.96;65.49
33781;BME280;20097;50.832;19.100;2023-03-15T14:49:10;98065.88;;;6.09;65.62
33781;BME280;20097;50.832;19.100;2023-03-15T14:54:16;98075.19;;;6.02;63.88
33781;BME280;20097;50.832;19.100;2023-03-15T14:59:20;98082.72;;;6.31;64.01
33781;BME280;20097;50.832;19.100;2023-03-15T15:04:24;98081.16;;;6.20;60.89
33781;BME280;20097;50.832;19.100;2023-03-15T15:09:34;98090.06;;;6.43;60.10
33781;BME280;20097;50.832;19.100;2023-03-15T15:14:41;98088.72;;;6.39;59.03
33781;BME280;20097;50.832;19.100;2023-03-15T15:19:45;98104.31;;;6.22;58.77
33781;BME280;20097;50.832;19.100;2023-03-15T15:24:51;98091.22;;;6.23;59.45
33781;BME280;20097;50.832;19.100;2023-03-15T15:29:55;98096.00;;;5.93;59.27
33781;BME280;20097;50.832;19.100;2023-03-15T15:34:59;98094.19;;;5.58;58.70
33781;BME280;20097;50.832;19.100;2023-03-15T15:40:10;98091.81;;;5.47;59.97
33781;BME280;20097;50.832;19.100;2023-03-15T15:45:18;98104.38;;;5.42;60.41
33781;BME280;20097;50.832;19.100;2023-03-15T15:50:22;98111.69;;;5.29;60.60
33781;BME280;20097;50.832;19.100;2023-03-15T15:55:30;98117.22;;;5.16;60.68
33781;BME280;20097;50.832;19.100;2023-03-15T16:00:35;98114.69;;;5.07;61.95
33781;BME280;20097;50.832;19.100;2023-03-15T16:05:39;98111.59;;;4.94;62.46
33781;BME280;20097;50.832;19.100;2023-03-15T16:10:45;98104.53;;;4.96;63.69
33781;BME280;20097;50.832;19.100;2023-03-15T16:15:49;98098.56;;;4.86;64.32
33781;BME280;20097;50.832;19.100;2023-03-15T16:20:53;98104.53;;;4.86;64.77
33781;BME280;20097;50.832;19.100;2023-03-15T16:25:58;98107.41;;;4.83;66.43
33781;BME280;20097;50.832;19.100;2023-03-15T16:31:02;98112.66;;;4.64;67.77
33781;BME280;20097;50.832;19.100;2023-03-15T16:36:15;98118.81;;;4.54;67.43
33781;BME280;20097;50.832;19.100;2023-03-15T16:41:20;98124.81;;;4.45;68.83
33781;BME280;20097;50.832;19.100;2023-03-15T16:46:24;98134.91;;;4.29;70.80
33781;BME280;20097;50.832;19.100;2023-03-15T16:51:28;98137.91;;;4.24;70.63
33781;BME280;20097;50.832;19.100;2023-03-15T16:56:35;98138.44;;;4.18;73.31
33781;BME280;20097;50.832;19.100;2023-03-15T17:01:39;98146.22;;;4.08;74.30
33781;BME280;20097;50.832;19.100;2023-03-15T17:06:44;98147.44;;;4.04;75.15
33781;BME280;20097;50.832;19.100;2023-03-15T17:11:50;98156.53;;;4.08;76.64
33781;BME280;20097;50.832;19.100;2023-03-15T17:16:54;98160.75;;;3.90;76.31
33781;BME280;20097;50.832;19.100;2023-03-15T17:21:59;98168.09;;;3.85;78.50
33781;BME280;20097;50.832;19.100;2023-03-15T17:27:04;98168.75;;;3.78;79.14
33781;BME280;20097;50.832;19.100;2023-03-15T17:32:09;98175.66;;;3.68;78.69
33781;BME280;20097;50.832;19.100;2023-03-15T17:37:14;98193.59;;;3.69;79.19
33781;BME280;20097;50.832;19.100;2023-03-15T17:42:21;98198.25;;;3.66;80.97
33781;BME280;20097;50.832;19.100;2023-03-15T17:47:25;98208.56;;;3.66;82.01
33781;BME280;20097;50.832;19.100;2023-03-15T17:52:30;98212.75;;;3.57;83.17
33781;BME280;20097;50.832;19.100;2023-03-15T17:57:36;98209.03;;;3.50;85.39
33781;BME280;20097;50.832;19.100;2023-03-15T18:02:48;98212.72;;;3.48;87.08
33781;BME280;20097;50.832;19.100;2023-03-15T18:07:57;98215.31;;;3.48;88.05
33781;BME280;20097;50.832;19.100;2023-03-15T18:13:04;98219.47;;;3.39;90.90
33781;BME280;20097;50.832;19.100;2023-03-15T18:18:09;98221.91;;;3.11;97.29
33781;BME280;20097;50.832;19.100;2023-03-15T18:23:14;98224.72;;;2.98;99.60
33781;BME280;20097;50.832;19.100;2023-03-15T18:28:20;98221.41;;;2.87;100.00
33781;BME280;20097;50.832;19.100;2023-03-15T18:33:25;98227.50;;;2.86;100.00
33781;BME280;20097;50.832;19.100;2023-03-15T18:38:29;98213.69;;;2.66;100.00
33781;BME280;20097;50.832;19.100;2023-03-15T18:43:34;98222.13;;;2.68;100.00
33781;BME280;20097;50.832;19.100;2023-03-15T18:48:38;98233.88;;;2.61;100.00
33781;BME280;20097;50.832;19.100;2023-03-15T18:53:44;98230.16;;;2.54;100.00
33781;BME280;20097;50.832;19.100;2023-03-15T18:58:51;98236.19;;;2.43;100.00
33781;BME280;20097;50.832;19.100;2023-03-15T19:03:55;98238.44;;;2.37;100.00
33781;BME280;20097;50.832;19.100;2023-03-15T19:08:59;98240.53;;;2.11;100.00
33781;BME280;20097;50.832;19.100;2023-03-15T19:14:04;98255.69;;;1.83;100.00
33781;BME280;20097;50.832;19.100;2023-03-15T19:19:08;98261.09;;;1.80;100.00
33781;BME280;20097;50.832;19.100;2023-03-15T19:24:12;98270.94;;;1.64;100.00
33781;BME280;20097;50.832;19.100;2023-03-15T19:29:18;98278.78;;;1.62;100.00
33781;BME280;20097;50.832;19.100;2023-03-15T19:34:22;98271.75;;;1.64;100.00
33781;BME280;20097;50.832;19.100;2023-03-15T19:39:26;98269.28;;;1.52;100.00
33781;BME280;20097;50.832;19.100;2023-03-15T19:44:32;98276.06;;;1.41;100.00
33781;BME280;20097;50.832;19.100;2023-03-15T19:49:37;98282.16;;;1.52;100.00
33781;BME280;20097;50.832;19.100;2023-03-15T19:54:42;98292.94;;;1.23;100.00
33781;BME280;20097;50.832;19.100;2023-03-15T19:59:49;98307.50;;;1.12;100.00
33781;BME280;20097;50.832;19.100;2023-03-15T20:04:54;98310.38;;;0.96;100.00
33781;BME280;20097;50.832;19.100;2023-03-15T20:09:58;98317.47;;;0.82;100.00
33781;BME280;20097;50.832;19.100;2023-03-15T20:15:05;98314.41;;;0.66;100.00
33781;BME280;20097;50.832;19.100;2023-03-15T20:20:12;98312.94;;;0.51;100.00
33781;BME280;20097;50.832;19.100;2023-03-15T20:25:18;98321.25;;;0.31;100.00
33781;BME280;20097;50.832;19.100;2023-03-15T20:30:24;98322.47;;;0.14;100.00
33781;BME280;20097;50.832;19.100;2023-03-15T20:35:28;98331.94;;;0.01;100.00
33781;BME280;20097;50.832;19.100;2023-03-15T20:40:33;98332.50;;;-0.07;100.00
33781;BME280;20097;50.832;19.100;2023-03-15T20:45:39;98330.53;;;-0.16;100.00
33781;BME280;20097;50.832;19.100;2023-03-15T20:50:44;98336.31;;;-0.25;100.00
33781;BME280;20097;50.832;19.100;2023-03-15T20:55:49;98342.34;;;-0.13;100.00
33781;BME280;20097;50.832;19.100;2023-03-15T21:01:02;98345.56;;;-0.35;100.00
33781;BME280;20097;50.832;19.100;2023-03-15T21:06:07;98349.25;;;-0.26;100.00
33781;BME280;20097;50.832;19.100;2023-03-15T21:11:11;98345.22;;;-0.05;100.00
33781;BME280;20097;50.832;19.100;2023-03-15T21:16:17;98365.50;;;-0.02;100.00
33781;BME280;20097;50.832;19.100;2023-03-15T21:21:21;98360.38;;;-0.02;100.00
33781;BME280;20097;50.832;19.100;2023-03-15T21:26:25;98367.47;;;-0.06;100.00
33781;BME280;20097;50.832;19.100;2023-03-15T21:31:31;98376.38;;;-0.11;100.00
33781;BME280;20097;50.832;19.100;2023-03-15T21:36:35;98373.97;;;-0.25;100.00
33781;BME280;20097;50.832;19.100;2023-03-15T21:41:39;98384.44;;;-0.53;100.00
33781;BME280;20097;50.832;19.100;2023-03-15T21:46:45;98384.84;;;-0.72;100.00
33781;BME280;20097;50.832;19.100;2023-03-15T21:51:49;98386.06;;;-0.77;100.00
33781;BME280;20097;50.832;19.100;2023-03-15T21:56:54;98387.00;;;-0.78;100.00
33781;BME280;20097;50.832;19.100;2023-03-15T22:01:59;98395.63;;;-0.67;100.00
33781;BME280;20097;50.832;19.100;2023-03-15T22:07:04;98397.47;;;-0.56;100.00
33781;BME280;20097;50.832;19.100;2023-03-15T22:12:09;98404.84;;;-0.64;100.00
33781;BME280;20097;50.832;19.100;2023-03-15T22:17:17;98411.84;;;-0.54;100.00
33781;BME280;20097;50.832;19.100;2023-03-15T22:22:21;98410.28;;;-0.56;100.00
33781;BME280;20097;50.832;19.100;2023-03-15T22:27:26;98413.88;;;-0.59;100.00
33781;BME280;20097;50.832;19.100;2023-03-15T22:32:32;98417.44;;;-0.49;100.00
33781;BME280;20097;50.832;19.100;2023-03-15T22:37:36;98419.41;;;-0.52;100.00
33781;BME280;20097;50.832;19.100;2023-03-15T22:42:40;98433.97;;;-0.65;100.00
33781;BME280;20097;50.832;19.100;2023-03-15T22:47:47;98419.28;;;-0.63;100.00
33781;BME280;20097;50.832;19.100;2023-03-15T22:52:52;98429.00;;;-0.68;100.00
33781;BME280;20097;50.832;19.100;2023-03-15T22:57:57;98430.34;;;-0.75;100.00
33781;BME280;20097;50.832;19.100;2023-03-15T23:03:02;98437.88;;;-0.99;100.00
33781;BME280;20097;50.832;19.100;2023-03-15T23:08:07;98444.28;;;-1.18;100.00
33781;BME280;20097;50.832;19.100;2023-03-15T23:13:11;98446.16;;;-1.34;100.00
33781;BME280;20097;50.832;19.100;2023-03-15T23:18:17;98456.50;;;-1.36;100.00
33781;BME280;20097;50.832;19.100;2023-03-15T23:23:21;98470.38;;;-1.26;100.00
33781;BME280;20097;50.832;19.100;2023-03-15T23:28:27;98469.34;;;-1.23;100.00
33781;BME280;20097;50.832;19.100;2023-03-15T23:33:32;98477.19;;;-1.39;100.00
